Time;durP1;ratioP1;P1;durP2;ratioP2;P2;SDS_P1;SDS_P2;PMS_P1;PMS_P2;Temp;Humidity;BMP_temperature;BMP_pressure;BME280_temperature;BME280_humidity;BME280_pressure;Samples;Min_cycle;Max_cycle;Signal;HPM_P1;HPM_P2
2023/10/31 05:22:29;;;;;;;4.30;1.30;;;10.40;99.90;;;;;;6040355;23;20400;-82
2023/10/31 05:25:18;;;;;;;1.07;1.07;;;10.50;99.90;;;;;;6039211;23;20418;-80
2023/10/31 05:27:48;;;;;;;2.60;1.00;;;10.40;99.90;;;;;;6008287;23;20433;-81
2023/10/31 05:30:25;;;;;;;2.03;1.33;;;10.40;99.90;;;;;;6107537;23;20943;-80
2023/10/31 05:33:15;;;;;;;1.47;1.10;;;10.40;99.90;;;;;;6131755;23;20476;-80
2023/10/31 05:35:52;;;;;;;2.23;0.93;;;10.40;99.90;;;;;;6137540;23;20424;-79
2023/10/31 05:38:28;;;;;;;2.10;1.00;;;10.40;99.90;;;;;;6140529;23;20436;-82
2023/10/31 05:41:06;;;;;;;1.23;0.97;;;10.40;99.90;;;;;;6139813;23;21088;-80
2023/10/31 05:43:38;;;;;;;1.43;1.33;;;10.30;99.90;;;;;;6136590;23;20409;-81
2023/10/31 05:46:19;;;;;;;1.30;1.30;;;10.40;99.90;;;;;;6137791;23;20390;-81
2023/10/31 05:48:59;;;;;;;1.30;1.20;;;10.40;99.90;;;;;;6138774;23;20417;-79
2023/10/31 05:51:30;;;;;;;2.73;1.10;;;10.40;99.90;;;;;;6138805;23;20489;-79
2023/10/31 05:54:06;;;;;;;1.20;1.20;;;10.40;99.90;;;;;;6137174;23;20396;-80
2023/10/31 05:56:35;;;;;;;1.30;0.90;;;10.40;99.90;;;;;;6135302;23;20417;-80
2023/10/31 05:59:26;;;;;;;3.30;1.40;;;10.50;99.90;;;;;;6136251;23;20409;-80
2023/10/31 06:08:41;;;;;;;2.20;1.10;;;10.60;99.90;;;;;;6135697;23;20429;-80
2023/10/31 06:11:24;;;;;;;0.77;0.77;;;10.30;99.90;;;;;;6136421;23;20475;-79
2023/10/31 06:14:17;;;;;;;1.83;1.53;;;10.30;99.90;;;;;;6134257;23;20419;-81
2023/10/31 06:16:50;;;;;;;2.30;1.13;;;10.30;99.90;;;;;;6132834;23;20423;-82
2023/10/31 06:19:47;;;;;;;;;;;;;;;;;;;;;
2023/10/31 06:22:42;;;;;;;1.90;1.30;;;10.30;99.90;;;;;;6124390;23;20432;-81
2023/10/31 06:25:27;;;;;;;0.97;0.90;;;10.30;99.90;;;;;;6126380;23;20383;-82
2023/10/31 06:31:50;;;;;;;0.90;0.90;;;10.20;99.90;;;;;;6103380;23;20510;-80
2023/10/31 06:34:27;;;;;;;1.30;1.20;;;10.30;99.90;;;;;;6127481;23;20463;-81
2023/10/31 06:37:09;;;;;;;0.90;0.90;;;10.20;99.90;;;;;;6125653;23;20452;-79
2023/10/31 06:39:46;;;;;;;1.00;1.00;;;10.20;99.90;;;;;;6129275;23;20401;-82
2023/10/31 06:42:43;;;;;;;1.00;0.83;;;10.20;99.90;;;;;;6129937;23;20428;-81
2023/10/31 06:45:34;;;;;;;2.00;1.10;;;10.30;99.90;;;;;;6132347;23;20417;-82
2023/10/31 06:48:43;;;;;;;1.07;1.07;;;10.30;99.90;;;;;;6129436;23;20509;-79
2023/10/31 06:51:26;;;;;;;1.67;0.90;;;10.30;99.90;;;;;;6128144;23;20436;-80
2023/10/31 06:56:53;;;;;;;1.17;1.10;;;10.40;99.90;;;;;;6127092;23;20420;-81
2023/10/31 06:59:50;;;;;;;1.50;1.40;;;10.40;99.90;;;;;;6129451;23;20421;-79
2023/10/31 07:02:26;;;;;;;2.70;1.60;;;10.40;99.90;;;;;;6123169;23;20440;-80
2023/10/31 07:05:21;;;;;;;2.30;1.30;;;10.40;99.90;;;;;;6133929;23;20409;-80
2023/10/31 07:08:14;;;;;;;0.93;0.90;;;10.40;99.90;;;;;;6131038;23;20429;-81
2023/10/31 07:10:59;;;;;;;1.40;1.30;;;10.40;99.90;;;;;;6132384;23;20448;-80
2023/10/31 07:13:45;;;;;;;3.30;1.27;;;10.40;99.90;;;;;;6133326;23;20412;-80
2023/10/31 07:16:31;;;;;;;2.00;0.90;;;10.50;99.90;;;;;;6132124;23;20417;-81
2023/10/31 07:19:22;;;;;;;1.23;1.10;;;10.50;99.90;;;;;;6133935;23;20427;-80
2023/10/31 07:22:04;;;;;;;1.47;1.10;;;10.50;99.90;;;;;;6147485;23;20416;-80
2023/10/31 07:24:57;;;;;;;0.87;0.87;;;10.50;99.90;;;;;;6135155;23;20435;-80
2023/10/31 11:12:00;;;;;;;;;;;;;;;;;;;;;
2023/10/31 16:41:17;;;;;;;1.37;1.30;;;12.60;99.90;;;;;;6135049;23;20412;-81
2023/10/31 16:52:17;;;;;;;2.90;1.70;;;12.50;99.90;;;;;;6147853;23;20465;-80
2023/10/31 17:11:51;;;;;;;1.83;1.73;;;12.30;99.90;;;;;;6186783;23;20429;-82
2023/10/31 17:38:27;;;;;;;2.00;1.90;;;12.00;99.90;;;;;;6088605;23;20457;-81
2023/10/31 17:55:24;;;;;;;;;;;;;;;;;;;;;
2023/10/31 17:59:02;;;;;;;;;;;;;;;;;;;;;
2023/10/31 18:28:56;;;;;;;2.83;2.73;;;11.30;99.90;;;;;;5966674;23;20458;-81
2023/10/31 18:45:52;;;;;;;2.03;1.93;;;11.40;99.90;;;;;;6135449;23;20415;-80
2023/10/31 18:55:39;;;;;;;2.63;2.43;;;11.40;99.90;;;;;;6146921;23;20911;-79
2023/10/31 19:34:38;;;;;;;2.37;2.17;;;11.50;99.90;;;;;;5800469;24;20447;-81
